sensor_id;sensor_type;location;lat;lon;timestamp;pressure;altitude;pressure_sealevel;temperature;humidity
25947;BME280;13745;51.470;9.894;2022-07-29T00:02:15;99601.72;;;20.46;41.94
25947;BME280;13745;51.470;9.894;2022-07-29T00:05:04;99593.69;;;20.41;42.16
25947;BME280;13745;51.470;9.894;2022-07-29T00:07:50;99589.69;;;20.39;42.04
25947;BME280;13745;51.470;9.894;2022-07-29T00:10:36;99591.47;;;20.31;42.43
25947;BME280;13745;51.470;9.894;2022-07-29T00:13:22;99584.25;;;20.27;42.42
25947;BME280;13745;51.470;9.894;2022-07-29T00:16:08;99582.13;;;20.20;42.35
25947;BME280;13745;51.470;9.894;2022-07-29T00:18:54;99588.31;;;20.18;42.36
25947;BME280;13745;51.470;9.894;2022-07-29T00:21:41;99581.22;;;20.17;42.23
25947;BME280;13745;51.470;9.894;2022-07-29T00:24:27;99572.63;;;20.18;42.27
25947;BME280;13745;51.470;9.894;2022-07-29T00:27:13;99572.97;;;20.17;42.48
25947;BME280;13745;51.470;9.894;2022-07-29T00:29:59;99577.69;;;20.16;42.36
25947;BME280;13745;51.470;9.894;2022-07-29T00:32:45;99572.50;;;20.15;42.44
25947;BME280;13745;51.470;9.894;2022-07-29T00:35:31;99570.91;;;20.14;42.70
25947;BME280;13745;51.470;9.894;2022-07-29T00:38:33;99564.53;;;20.10;42.59
25947;BME280;13745;51.470;9.894;2022-07-29T00:41:19;99563.38;;;20.11;42.64
25947;BME280;13745;51.470;9.894;2022-07-29T00:44:05;99558.31;;;20.13;42.64
25947;BME280;13745;51.470;9.894;2022-07-29T00:46:51;99552.09;;;20.16;43.04
25947;BME280;13745;51.470;9.894;2022-07-29T00:49:38;99556.00;;;20.15;43.20
25947;BME280;13745;51.470;9.894;2022-07-29T00:52:25;99556.00;;;20.15;43.21
25947;BME280;13745;51.470;9.894;2022-07-29T00:55:14;99543.06;;;20.15;43.42
25947;BME280;13745;51.470;9.894;2022-07-29T00:58:00;99554.84;;;20.16;43.56
25947;BME280;13745;51.470;9.894;2022-07-29T01:00:46;99552.94;;;20.16;43.55
25947;BME280;13745;51.470;9.894;2022-07-29T01:03:32;99553.72;;;20.17;43.57
25947;BME280;13745;51.470;9.894;2022-07-29T01:06:18;99532.41;;;20.14;43.54
25947;BME280;13745;51.470;9.894;2022-07-29T01:09:05;99534.72;;;20.12;43.59
25947;BME280;13745;51.470;9.894;2022-07-29T01:11:53;99533.56;;;20.13;43.43
25947;BME280;13745;51.470;9.894;2022-07-29T01:14:40;99534.00;;;20.15;43.40
25947;BME280;13745;51.470;9.894;2022-07-29T01:17:32;99528.88;;;20.13;43.48
25947;BME280;13745;51.470;9.894;2022-07-29T01:20:25;99534.38;;;20.13;43.42
25947;BME280;13745;51.470;9.894;2022-07-29T01:23:36;99540.22;;;20.12;43.50
25947;BME280;13745;51.470;9.894;2022-07-29T01:26:41;99529.13;;;20.08;43.61
25947;BME280;13745;51.470;9.894;2022-07-29T01:29:30;99529.13;;;20.08;43.66
25947;BME280;13745;51.470;9.894;2022-07-29T01:32:20;99533.84;;;20.08;43.75
25947;BME280;13745;51.470;9.894;2022-07-29T01:35:12;99527.44;;;20.04;43.94
25947;BME280;13745;51.470;9.894;2022-07-29T01:38:05;99525.81;;;20.03;44.02
25947;BME280;13745;51.470;9.894;2022-07-29T01:40:57;99524.94;;;19.99;44.08
25947;BME280;13745;51.470;9.894;2022-07-29T01:43:49;99522.47;;;19.94;43.92
25947;BME280;13745;51.470;9.894;2022-07-29T01:46:43;99516.97;;;19.94;44.25
25947;BME280;13745;51.470;9.894;2022-07-29T01:49:35;99516.50;;;19.92;44.19
25947;BME280;13745;51.470;9.894;2022-07-29T01:52:27;99506.69;;;19.91;44.34
25947;BME280;13745;51.470;9.894;2022-07-29T01:55:15;99507.34;;;19.88;44.30
25947;BME280;13745;51.470;9.894;2022-07-29T01:58:03;99507.78;;;19.90;44.23
25947;BME280;13745;51.470;9.894;2022-07-29T02:00:50;99512.16;;;19.91;44.15
25947;BME280;13745;51.470;9.894;2022-07-29T02:03:39;99502.41;;;19.94;44.23
25947;BME280;13745;51.470;9.894;2022-07-29T02:06:27;99493.38;;;19.93;44.38
25947;BME280;13745;51.470;9.894;2022-07-29T02:09:14;99504.38;;;19.93;44.43
25947;BME280;13745;51.470;9.894;2022-07-29T02:12:03;99494.06;;;19.90;44.37
25947;BME280;13745;51.470;9.894;2022-07-29T02:14:51;99498.75;;;19.90;44.53
25947;BME280;13745;51.470;9.894;2022-07-29T02:17:41;99497.16;;;19.89;44.80
25947;BME280;13745;51.470;9.894;2022-07-29T02:20:29;99494.75;;;19.87;44.96
25947;BME280;13745;51.470;9.894;2022-07-29T02:23:19;99492.38;;;19.86;44.85
25947;BME280;13745;51.470;9.894;2022-07-29T02:26:06;99489.97;;;19.84;45.02
25947;BME280;13745;51.470;9.894;2022-07-29T02:28:55;99492.28;;;19.82;45.14
25947;BME280;13745;51.470;9.894;2022-07-29T02:31:42;99490.25;;;19.79;45.13
25947;BME280;13745;51.470;9.894;2022-07-29T02:34:32;99490.47;;;19.74;45.28
25947;BME280;13745;51.470;9.894;2022-07-29T02:37:21;99482.50;;;19.70;45.18
25947;BME280;13745;51.470;9.894;2022-07-29T02:40:10;99488.78;;;19.70;45.00
25947;BME280;13745;51.470;9.894;2022-07-29T02:42:56;99487.91;;;19.66;45.04
25947;BME280;13745;51.470;9.894;2022-07-29T02:45:42;99481.13;;;19.64;45.08
25947;BME280;13745;51.470;9.894;2022-07-29T02:48:34;99487.75;;;19.63;44.96
25947;BME280;13745;51.470;9.894;2022-07-29T02:51:25;99475.97;;;19.62;45.01
25947;BME280;13745;51.470;9.894;2022-07-29T02:54:23;99478.28;;;19.60;45.17
25947;BME280;13745;51.470;9.894;2022-07-29T03:00:16;99469.22;;;19.60;45.58
25947;BME280;13745;51.470;9.894;2022-07-29T03:03:06;99471.88;;;19.56;45.54
25947;BME280;13745;51.470;9.894;2022-07-29T03:05:54;99468.78;;;19.58;45.55
25947;BME280;13745;51.470;9.894;2022-07-29T03:08:42;99469.50;;;19.55;45.53
25947;BME280;13745;51.470;9.894;2022-07-29T03:11:30;99462.41;;;19.54;45.72
25947;BME280;13745;51.470;9.894;2022-07-29T03:14:17;99466.97;;;19.50;45.89
25947;BME280;13745;51.470;9.894;2022-07-29T03:17:03;99463.06;;;19.51;46.02
25947;BME280;13745;51.470;9.894;2022-07-29T03:19:49;99463.44;;;19.50;45.94
25947;BME280;13745;51.470;9.894;2022-07-29T03:22:39;99450.50;;;19.50;46.04
25947;BME280;13745;51.470;9.894;2022-07-29T03:25:28;99456.00;;;19.50;46.18
25947;BME280;13745;51.470;9.894;2022-07-29T03:28:15;99457.50;;;19.48;46.02
25947;BME280;13745;51.470;9.894;2022-07-29T03:31:01;99460.59;;;19.46;46.24
25947;BME280;13745;51.470;9.894;2022-07-29T03:33:47;99454.88;;;19.39;46.07
25947;BME280;13745;51.470;9.894;2022-07-29T03:36:33;99453.28;;;19.38;46.18
25947;BME280;13745;51.470;9.894;2022-07-29T03:39:22;99454.56;;;19.41;46.30
25947;BME280;13745;51.470;9.894;2022-07-29T03:42:10;99459.59;;;19.39;46.18
25947;BME280;13745;51.470;9.894;2022-07-29T03:45:01;99457.19;;;19.37;46.16
25947;BME280;13745;51.470;9.894;2022-07-29T03:47:50;99457.19;;;19.37;46.17
25947;BME280;13745;51.470;9.894;2022-07-29T03:50:37;99457.91;;;19.34;46.19
25947;BME280;13745;51.470;9.894;2022-07-29T03:53:23;99467.28;;;19.33;46.24
25947;BME280;13745;51.470;9.894;2022-07-29T03:56:10;99466.41;;;19.29;46.33
25947;BME280;13745;51.470;9.894;2022-07-29T03:58:58;99459.31;;;19.29;46.35
25947;BME280;13745;51.470;9.894;2022-07-29T04:01:46;99455.41;;;19.29;46.19
25947;BME280;13745;51.470;9.894;2022-07-29T04:04:32;99450.81;;;19.33;45.83
25947;BME280;13745;51.470;9.894;2022-07-29T04:07:19;99450.09;;;19.36;45.78
25947;BME280;13745;51.470;9.894;2022-07-29T04:10:06;99453.28;;;19.38;45.93
25947;BME280;13745;51.470;9.894;2022-07-29T04:12:52;99457.31;;;19.41;46.09
25947;BME280;13745;51.470;9.894;2022-07-29T04:15:38;99457.31;;;19.41;46.40
25947;BME280;13745;51.470;9.894;2022-07-29T04:18:26;99455.38;;;19.41;46.59
25947;BME280;13745;51.470;9.894;2022-07-29T04:21:12;99454.22;;;19.42;46.68
25947;BME280;13745;51.470;9.894;2022-07-29T04:23:59;99457.41;;;19.44;46.68
25947;BME280;13745;51.470;9.894;2022-07-29T04:26:45;99466.44;;;19.45;46.55
25947;BME280;13745;51.470;9.894;2022-07-29T04:29:31;99469.28;;;19.48;46.30
25947;BME280;13745;51.470;9.894;2022-07-29T04:32:17;99468.56;;;19.51;46.20
25947;BME280;13745;51.470;9.894;2022-07-29T04:35:04;99471.09;;;19.56;46.36
25947;BME280;13745;51.470;9.894;2022-07-29T04:37:50;99467.28;;;19.60;46.44
25947;BME280;13745;51.470;9.894;2022-07-29T04:40:36;99468.31;;;19.68;46.65
25947;BME280;13745;51.470;9.894;2022-07-29T04:43:22;99470.44;;;19.74;46.48
25947;BME280;13745;51.470;9.894;2022-07-29T04:46:08;99472.47;;;19.77;46.41
25947;BME280;13745;51.470;9.894;2022-07-29T04:48:54;99489.97;;;19.84;46.25
25947;BME280;13745;51.470;9.894;2022-07-29T04:51:41;99487.44;;;19.91;46.31
25947;BME280;13745;51.470;9.894;2022-07-29T04:54:27;99495.84;;;19.98;46.15
25947;BME280;13745;51.470;9.894;2022-07-29T04:57:13;99501.78;;;20.00;46.23
25947;BME280;13745;51.470;9.894;2022-07-29T04:59:59;99485.84;;;20.05;46.32
25947;BME280;13745;51.470;9.894;2022-07-29T05:02:45;99472.63;;;20.11;46.53
25947;BME280;13745;51.470;9.894;2022-07-29T05:05:31;99480.53;;;20.12;46.69
25947;BME280;13745;51.470;9.894;2022-07-29T05:08:18;99475.81;;;20.13;47.16
25947;BME280;13745;51.470;9.894;2022-07-29T05:11:04;99488.84;;;20.16;47.18
25947;BME280;13745;51.470;9.894;2022-07-29T05:13:50;99489.31;;;20.18;46.98
25947;BME280;13745;51.470;9.894;2022-07-29T05:16:35;99486.28;;;20.22;46.83
25947;BME280;13745;51.470;9.894;2022-07-29T05:19:21;99484.63;;;20.33;46.34
25947;BME280;13745;51.470;9.894;2022-07-29T05:22:07;99469.91;;;20.41;46.17
25947;BME280;13745;51.470;9.894;2022-07-29T05:24:55;99476.75;;;20.47;46.39
25947;BME280;13745;51.470;9.894;2022-07-29T05:27:41;99470.53;;;20.50;46.56
25947;BME280;13745;51.470;9.894;2022-07-29T05:30:26;99477.00;;;20.57;46.63
25947;BME280;13745;51.470;9.894;2022-07-29T05:33:12;99468.66;;;20.69;46.81
25947;BME280;13745;51.470;9.894;2022-07-29T05:35:58;99464.25;;;20.83;46.60
25947;BME280;13745;51.470;9.894;2022-07-29T05:38:44;99473.28;;;20.99;46.23
25947;BME280;13745;51.470;9.894;2022-07-29T05:41:32;99476.97;;;21.21;45.86
25947;BME280;13745;51.470;9.894;2022-07-29T05:44:18;99473.22;;;21.48;45.68
25947;BME280;13745;51.470;9.894;2022-07-29T05:47:04;99472.13;;;21.71;45.48
25947;BME280;13745;51.470;9.894;2022-07-29T05:49:50;99473.41;;;21.95;45.29
25947;BME280;13745;51.470;9.894;2022-07-29T05:52:36;99477.47;;;22.23;45.08
25947;BME280;13745;51.470;9.894;2022-07-29T05:55:22;99486.41;;;22.39;44.82
25947;BME280;13745;51.470;9.894;2022-07-29T05:58:09;99481.81;;;22.46;44.56
25947;BME280;13745;51.470;9.894;2022-07-29T06:00:55;99477.91;;;22.47;44.29
25947;BME280;13745;51.470;9.894;2022-07-29T06:03:43;99480.28;;;22.48;44.37
25947;BME280;13745;51.470;9.894;2022-07-29T06:06:29;99481.34;;;22.66;44.10
25947;BME280;13745;51.470;9.894;2022-07-29T06:09:15;99488.09;;;22.90;43.97
25947;BME280;13745;51.470;9.894;2022-07-29T06:12:01;99479.59;;;23.02;43.45
25947;BME280;13745;51.470;9.894;2022-07-29T06:14:48;99472.16;;;23.06;43.22
25947;BME280;13745;51.470;9.894;2022-07-29T06:17:34;99473.44;;;23.12;42.94
25947;BME280;13745;51.470;9.894;2022-07-29T06:20:20;99479.06;;;23.19;42.74
25947;BME280;13745;51.470;9.894;2022-07-29T06:23:05;99481.91;;;23.26;42.50
25947;BME280;13745;51.470;9.894;2022-07-29T06:25:51;99477.25;;;23.30;42.32
25947;BME280;13745;51.470;9.894;2022-07-29T06:31:24;99479.13;;;23.51;41.85
25947;BME280;13745;51.470;9.894;2022-07-29T06:34:10;99477.63;;;23.57;41.86
25947;BME280;13745;51.470;9.894;2022-07-29T06:36:56;99480.84;;;23.62;41.26
25947;BME280;13745;51.470;9.894;2022-07-29T06:39:41;99480.84;;;23.62;41.57
25947;BME280;13745;51.470;9.894;2022-07-29T06:42:27;99484.44;;;23.66;41.30
25947;BME280;13745;51.470;9.894;2022-07-29T06:45:14;99482.91;;;23.69;41.52
25947;BME280;13745;51.470;9.894;2022-07-29T06:48:01;99474.63;;;23.69;41.29
25947;BME280;13745;51.470;9.894;2022-07-29T06:50:48;99470.34;;;23.75;41.45
25947;BME280;13745;51.470;9.894;2022-07-29T06:53:34;99472.94;;;23.93;40.79
25947;BME280;13745;51.470;9.894;2022-07-29T06:56:20;99479.88;;;24.13;40.54
25947;BME280;13745;51.470;9.894;2022-07-29T06:59:07;99476.00;;;24.21;40.40
25947;BME280;13745;51.470;9.894;2022-07-29T07:01:53;99478.00;;;24.20;40.27
25947;BME280;13745;51.470;9.894;2022-07-29T07:04:41;99485.91;;;24.22;40.64
25947;BME280;13745;51.470;9.894;2022-07-29T07:07:26;99481.13;;;24.19;40.55
25947;BME280;13745;51.470;9.894;2022-07-29T07:10:12;99484.22;;;24.14;40.89
25947;BME280;13745;51.470;9.894;2022-07-29T07:12:59;99480.28;;;24.15;40.93
25947;BME280;13745;51.470;9.894;2022-07-29T07:15:45;99480.28;;;24.15;41.16
25947;BME280;13745;51.470;9.894;2022-07-29T07:18:32;99484.69;;;24.19;40.81
25947;BME280;13745;51.470;9.894;2022-07-29T07:21:19;99486.69;;;24.19;40.84
25947;BME280;13745;51.470;9.894;2022-07-29T07:24:06;99498.16;;;24.21;40.46
25947;BME280;13745;51.470;9.894;2022-07-29T07:26:52;99485.13;;;24.25;40.42
25947;BME280;13745;51.470;9.894;2022-07-29T07:29:38;99489.16;;;24.30;40.65
25947;BME280;13745;51.470;9.894;2022-07-29T07:32:25;99486.84;;;24.36;40.58
25947;BME280;13745;51.470;9.894;2022-07-29T07:35:11;99482.91;;;24.40;40.24
25947;BME280;13745;51.470;9.894;2022-07-29T07:37:59;99485.34;;;24.45;40.03
25947;BME280;13745;51.470;9.894;2022-07-29T07:40:44;99491.66;;;24.42;39.60
25947;BME280;13745;51.470;9.894;2022-07-29T07:43:31;99487.31;;;24.45;39.75
25947;BME280;13745;51.470;9.894;2022-07-29T07:46:17;99487.75;;;24.50;39.71
25947;BME280;13745;51.470;9.894;2022-07-29T07:49:03;99494.97;;;24.58;39.34
25947;BME280;13745;51.470;9.894;2022-07-29T07:51:49;99504.53;;;24.67;39.29
25947;BME280;13745;51.470;9.894;2022-07-29T07:54:36;99503.84;;;24.77;39.05
25947;BME280;13745;51.470;9.894;2022-07-29T07:57:22;99516.59;;;24.85;38.39
25947;BME280;13745;51.470;9.894;2022-07-29T08:00:09;99517.47;;;24.99;38.19
25947;BME280;13745;51.470;9.894;2022-07-29T08:02:59;99510.13;;;25.20;37.66
25947;BME280;13745;51.470;9.894;2022-07-29T08:05:45;99517.72;;;25.33;37.42
25947;BME280;13745;51.470;9.894;2022-07-29T08:08:32;99513.00;;;25.37;37.28
25947;BME280;13745;51.470;9.894;2022-07-29T08:11:19;99506.97;;;25.25;37.33
25947;BME280;13745;51.470;9.894;2022-07-29T08:14:05;99516.78;;;25.12;37.24
25947;BME280;13745;51.470;9.894;2022-07-29T08:16:51;99514.00;;;25.12;37.07
25947;BME280;13745;51.470;9.894;2022-07-29T08:19:37;99512.06;;;25.16;37.18
25947;BME280;13745;51.470;9.894;2022-07-29T08:22:23;99519.22;;;25.20;37.02
25947;BME280;13745;51.470;9.894;2022-07-29T08:25:08;99516.00;;;25.15;37.00
25947;BME280;13745;51.470;9.894;2022-07-29T08:27:56;99509.31;;;25.19;36.88
25947;BME280;13745;51.470;9.894;2022-07-29T08:30:42;99509.84;;;25.35;36.49
25947;BME280;13745;51.470;9.894;2022-07-29T08:33:28;99505.94;;;25.50;36.28
25947;BME280;13745;51.470;9.894;2022-07-29T08:36:14;99508.41;;;25.62;36.05
25947;BME280;13745;51.470;9.894;2022-07-29T08:39:00;99494.97;;;25.74;35.72
25947;BME280;13745;51.470;9.894;2022-07-29T08:41:46;99496.22;;;25.90;35.43
25947;BME280;13745;51.470;9.894;2022-07-29T08:44:34;99489.56;;;26.05;35.49
25947;BME280;13745;51.470;9.894;2022-07-29T08:47:20;99499.13;;;26.17;35.51
25947;BME280;13745;51.470;9.894;2022-07-29T08:50:07;99491.94;;;26.16;36.06
25947;BME280;13745;51.470;9.894;2022-07-29T08:52:53;99481.25;;;26.05;36.36
25947;BME280;13745;51.470;9.894;2022-07-29T08:55:39;99480.75;;;25.89;36.74
25947;BME280;13745;51.470;9.894;2022-07-29T08:58:26;99475.94;;;25.72;36.93
25947;BME280;13745;51.470;9.894;2022-07-29T09:01:21;99471.47;;;25.51;37.51
25947;BME280;13745;51.470;9.894;2022-07-29T09:04:10;99461.50;;;25.39;37.62
25947;BME280;13745;51.470;9.894;2022-07-29T09:07:00;99447.16;;;25.27;38.06
25947;BME280;13745;51.470;9.894;2022-07-29T09:09:49;99459.81;;;25.25;38.09
25947;BME280;13745;51.470;9.894;2022-07-29T09:12:35;99454.28;;;25.21;38.21
25947;BME280;13745;51.470;9.894;2022-07-29T09:15:21;99459.75;;;25.15;38.34
25947;BME280;13745;51.470;9.894;2022-07-29T09:18:08;99457.38;;;25.10;38.48
25947;BME280;13745;51.470;9.894;2022-07-29T09:20:54;99467.66;;;25.06;38.66
25947;BME280;13745;51.470;9.894;2022-07-29T09:24:03;99465.22;;;25.01;38.85
25947;BME280;13745;51.470;9.894;2022-07-29T09:26:49;99466.00;;;24.98;39.25
25947;BME280;13745;51.470;9.894;2022-07-29T09:29:36;99473.13;;;24.99;39.28
25947;BME280;13745;51.470;9.894;2022-07-29T09:32:23;99469.97;;;24.97;39.58
25947;BME280;13745;51.470;9.894;2022-07-29T09:35:18;99467.59;;;24.99;39.12
25947;BME280;13745;51.470;9.894;2022-07-29T09:38:14;99468.41;;;25.03;39.64
25947;BME280;13745;51.470;9.894;2022-07-29T09:41:03;99455.78;;;25.09;39.98
25947;BME280;13745;51.470;9.894;2022-07-29T09:43:53;99462.94;;;25.13;39.94
25947;BME280;13745;51.470;9.894;2022-07-29T09:46:40;99460.59;;;25.18;39.72
25947;BME280;13745;51.470;9.894;2022-07-29T09:49:26;99463.00;;;25.27;39.20
25947;BME280;13745;51.470;9.894;2022-07-29T09:52:13;99470.63;;;25.40;38.44
25947;BME280;13745;51.470;9.894;2022-07-29T09:55:05;99465.13;;;25.54;38.04
25947;BME280;13745;51.470;9.894;2022-07-29T09:57:51;99460.47;;;25.78;37.49
25947;BME280;13745;51.470;9.894;2022-07-29T10:00:41;99453.88;;;26.13;36.89
25947;BME280;13745;51.470;9.894;2022-07-29T10:03:27;99447.97;;;26.46;36.36
25947;BME280;13745;51.470;9.894;2022-07-29T10:06:13;99443.59;;;26.79;35.87
25947;BME280;13745;51.470;9.894;2022-07-29T10:09:18;99442.72;;;27.16;35.19
25947;BME280;13745;51.470;9.894;2022-07-29T10:12:09;99445.03;;;27.55;34.68
25947;BME280;13745;51.470;9.894;2022-07-29T10:14:55;99442.97;;;27.66;34.65
25947;BME280;13745;51.470;9.894;2022-07-29T10:17:41;99438.97;;;27.77;34.62
25947;BME280;13745;51.470;9.894;2022-07-29T10:20:27;99436.13;;;27.91;34.32
25947;BME280;13745;51.470;9.894;2022-07-29T10:23:13;99431.19;;;28.15;34.35
25947;BME280;13745;51.470;9.894;2022-07-29T10:26:01;99436.28;;;28.80;34.06
25947;BME280;13745;51.470;9.894;2022-07-29T10:28:47;99433.63;;;29.43;33.33
25947;BME280;13745;51.470;9.894;2022-07-29T10:31:42;99425.25;;;30.05;32.48
25947;BME280;13745;51.470;9.894;2022-07-29T10:34:41;99435.03;;;30.45;32.16
25947;BME280;13745;51.470;9.894;2022-07-29T10:37:38;99424.72;;;30.65;31.95
25947;BME280;13745;51.470;9.894;2022-07-29T10:40:39;99428.31;;;31.10;31.70
25947;BME280;13745;51.470;9.894;2022-07-29T10:43:48;99419.94;;;31.49;30.88
25947;BME280;13745;51.470;9.894;2022-07-29T10:46:36;99430.31;;;31.71;30.33
25947;BME280;13745;51.470;9.894;2022-07-29T10:49:22;99414.22;;;31.94;30.05
25947;BME280;13745;51.470;9.894;2022-07-29T10:52:10;99409.75;;;32.31;29.78
25947;BME280;13745;51.470;9.894;2022-07-29T10:54:57;99409.59;;;32.69;28.85
25947;BME280;13745;51.470;9.894;2022-07-29T10:58:13;99408.81;;;33.28;28.79
25947;BME280;13745;51.470;9.894;2022-07-29T11:01:27;99417.63;;;33.57;28.45
25947;BME280;13745;51.470;9.894;2022-07-29T11:04:15;99408.56;;;33.78;28.11
25947;BME280;13745;51.470;9.894;2022-07-29T11:07:07;99403.19;;;33.96;27.83
25947;BME280;13745;51.470;9.894;2022-07-29T11:10:21;99406.94;;;34.29;27.48
25947;BME280;13745;51.470;9.894;2022-07-29T11:13:07;99396.59;;;34.51;27.34
25947;BME280;13745;51.470;9.894;2022-07-29T11:15:54;99403.91;;;34.61;27.33
25947;BME280;13745;51.470;9.894;2022-07-29T11:21:57;99405.81;;;34.64;27.13
25947;BME280;13745;51.470;9.894;2022-07-29T11:24:43;99409.78;;;34.54;26.88
25947;BME280;13745;51.470;9.894;2022-07-29T11:27:30;99402.34;;;34.60;26.82
25947;BME280;13745;51.470;9.894;2022-07-29T11:30:47;99397.91;;;34.83;26.59
25947;BME280;13745;51.470;9.894;2022-07-29T11:33:33;99401.56;;;35.05;26.00
25947;BME280;13745;51.470;9.894;2022-07-29T11:36:19;99395.38;;;35.10;25.72
25947;BME280;13745;51.470;9.894;2022-07-29T11:39:27;99398.44;;;35.03;26.00
25947;BME280;13745;51.470;9.894;2022-07-29T11:42:48;99387.72;;;35.10;25.83
25947;BME280;13745;51.470;9.894;2022-07-29T11:45:45;99378.78;;;35.12;26.32
25947;BME280;13745;51.470;9.894;2022-07-29T11:48:31;99375.28;;;35.20;26.15
25947;BME280;13745;51.470;9.894;2022-07-29T11:51:18;99379.38;;;35.40;25.91
25947;BME280;13745;51.470;9.894;2022-07-29T11:54:04;99382.91;;;35.53;25.75
25947;BME280;13745;51.470;9.894;2022-07-29T11:56:51;99378.66;;;35.69;25.72
25947;BME280;13745;51.470;9.894;2022-07-29T11:59:39;99382.38;;;35.87;25.33
25947;BME280;13745;51.470;9.894;2022-07-29T12:02:38;99380.13;;;36.04;25.20
25947;BME280;13745;51.470;9.894;2022-07-29T12:05:32;99374.84;;;36.14;25.29
25947;BME280;13745;51.470;9.894;2022-07-29T12:08:20;99366.84;;;36.13;24.89
25947;BME280;13745;51.470;9.894;2022-07-29T12:11:15;99362.75;;;36.14;24.89
25947;BME280;13745;51.470;9.894;2022-07-29T12:14:02;99361.38;;;35.88;24.89
25947;BME280;13745;51.470;9.894;2022-07-29T12:16:48;99358.72;;;35.85;25.11
25947;BME280;13745;51.470;9.894;2022-07-29T12:19:42;99350.38;;;35.82;24.41
25947;BME280;13745;51.470;9.894;2022-07-29T12:22:29;99355.19;;;35.81;24.99
25947;BME280;13745;51.470;9.894;2022-07-29T12:25:15;99352.47;;;35.90;25.10
25947;BME280;13745;51.470;9.894;2022-07-29T12:28:04;99351.09;;;36.03;25.21
25947;BME280;13745;51.470;9.894;2022-07-29T12:30:52;99351.88;;;35.95;25.10
25947;BME280;13745;51.470;9.894;2022-07-29T12:33:37;99354.41;;;36.02;24.81
25947;BME280;13745;51.470;9.894;2022-07-29T12:36:23;99343.75;;;36.06;24.76
25947;BME280;13745;51.470;9.894;2022-07-29T12:39:10;99340.03;;;36.17;24.21
25947;BME280;13745;51.470;9.894;2022-07-29T12:41:57;99351.63;;;36.10;23.94
25947;BME280;13745;51.470;9.894;2022-07-29T12:44:46;99348.47;;;36.08;24.41
25947;BME280;13745;51.470;9.894;2022-07-29T12:47:50;99343.44;;;36.04;24.09
25947;BME280;13745;51.470;9.894;2022-07-29T12:50:51;99342.47;;;35.98;24.38
25947;BME280;13745;51.470;9.894;2022-07-29T12:53:38;99317.63;;;35.84;24.50
25947;BME280;13745;51.470;9.894;2022-07-29T12:56:24;99320.63;;;35.60;24.34
25947;BME280;13745;51.470;9.894;2022-07-29T12:59:15;99307.38;;;35.48;24.21
25947;BME280;13745;51.470;9.894;2022-07-29T13:02:01;99313.94;;;35.24;24.34
25947;BME280;13745;51.470;9.894;2022-07-29T13:04:56;99317.72;;;34.75;24.33
25947;BME280;13745;51.470;9.894;2022-07-29T13:07:42;99326.13;;;34.30;24.62
25947;BME280;13745;51.470;9.894;2022-07-29T13:10:35;99315.44;;;34.37;24.78
25947;BME280;13745;51.470;9.894;2022-07-29T13:13:21;99314.75;;;34.58;24.57
25947;BME280;13745;51.470;9.894;2022-07-29T13:16:07;99319.84;;;34.84;24.28
25947;BME280;13745;51.470;9.894;2022-07-29T13:19:10;99314.72;;;34.91;23.57
25947;BME280;13745;51.470;9.894;2022-07-29T13:21:57;99313.28;;;34.99;23.97
25947;BME280;13745;51.470;9.894;2022-07-29T13:24:48;99305.47;;;35.03;23.87
25947;BME280;13745;51.470;9.894;2022-07-29T13:27:36;99317.59;;;35.12;23.80
25947;BME280;13745;51.470;9.894;2022-07-29T13:30:22;99309.78;;;35.16;23.84
25947;BME280;13745;51.470;9.894;2022-07-29T13:33:09;99300.63;;;35.24;23.91
25947;BME280;13745;51.470;9.894;2022-07-29T13:35:54;99295.69;;;35.37;24.02
25947;BME280;13745;51.470;9.894;2022-07-29T13:38:42;99302.41;;;35.52;23.07
25947;BME280;13745;51.470;9.894;2022-07-29T13:41:28;99290.25;;;35.63;23.40
25947;BME280;13745;51.470;9.894;2022-07-29T13:44:13;99294.53;;;35.77;22.89
25947;BME280;13745;51.470;9.894;2022-07-29T13:46:59;99297.22;;;35.80;23.44
25947;BME280;13745;51.470;9.894;2022-07-29T13:49:45;99295.94;;;35.72;23.29
25947;BME280;13745;51.470;9.894;2022-07-29T13:52:31;99299.78;;;35.57;22.91
25947;BME280;13745;51.470;9.894;2022-07-29T13:55:19;99271.59;;;35.36;23.26
25947;BME280;13745;51.470;9.894;2022-07-29T13:58:05;99287.72;;;35.15;23.66
25947;BME280;13745;51.470;9.894;2022-07-29T14:00:51;99295.16;;;34.88;23.74
25947;BME280;13745;51.470;9.894;2022-07-29T14:03:37;99291.22;;;34.85;23.62
25947;BME280;13745;51.470;9.894;2022-07-29T14:06:25;99289.25;;;34.73;23.69
25947;BME280;13745;51.470;9.894;2022-07-29T14:09:11;99281.47;;;34.65;23.78
25947;BME280;13745;51.470;9.894;2022-07-29T14:11:58;99281.84;;;34.55;24.13
25947;BME280;13745;51.470;9.894;2022-07-29T14:14:44;99282.13;;;34.48;24.16
25947;BME280;13745;51.470;9.894;2022-07-29T14:17:30;99280.69;;;34.31;24.27
25947;BME280;13745;51.470;9.894;2022-07-29T14:20:16;99282.72;;;34.19;24.52
25947;BME280;13745;51.470;9.894;2022-07-29T14:23:02;99281.13;;;34.05;24.56
25947;BME280;13745;51.470;9.894;2022-07-29T14:25:48;99277.44;;;33.96;24.99
25947;BME280;13745;51.470;9.894;2022-07-29T14:28:35;99270.69;;;33.81;24.76
25947;BME280;13745;51.470;9.894;2022-07-29T14:31:21;99277.97;;;33.67;24.53
25947;BME280;13745;51.470;9.894;2022-07-29T14:34:07;99277.31;;;33.75;24.50
25947;BME280;13745;51.470;9.894;2022-07-29T14:36:53;99269.66;;;33.88;24.50
25947;BME280;13745;51.470;9.894;2022-07-29T14:39:40;99271.34;;;33.98;24.64
25947;BME280;13745;51.470;9.894;2022-07-29T14:42:25;99276.44;;;34.02;24.63
25947;BME280;13745;51.470;9.894;2022-07-29T14:45:13;99274.63;;;34.08;24.16
25947;BME280;13745;51.470;9.894;2022-07-29T14:47:59;99273.84;;;34.08;24.04
25947;BME280;13745;51.470;9.894;2022-07-29T14:50:45;99282.63;;;34.10;24.07
25947;BME280;13745;51.470;9.894;2022-07-29T14:53:31;99280.34;;;34.05;24.19
25947;BME280;13745;51.470;9.894;2022-07-29T14:56:17;99281.03;;;33.97;24.01
25947;BME280;13745;51.470;9.894;2022-07-29T14:59:03;99276.66;;;33.96;23.85
25947;BME280;13745;51.470;9.894;2022-07-29T15:01:51;99268.66;;;33.94;23.51